Latest Weather Observations for Dum In Mirrie

IDD60801

Issued at 1:31 pm CST Friday 6 March 2015 (issued every 30 minutes, with the page automatically refreshed every 10 minutes)

About weather observations | Map of weather stations | Latest weather observations for NT | Other Formats
Station Details ID: 014277 Name: DUM IN MIRRIE AIRSTRIP Lat: -12.63 Lon: 130.37 Height: 3.5 m
Data from the previous 72 hours. | See also: Recent months at Dum In Mirrie
Date/Time
CST
Temp
°C
App
Temp
°C
Dew
Point
Rel
Hum
%
Delta-T
°C
Wind Press
QNH
hPa
Press
MSL
hPa
Rain
since 9 am
mm
Dir
 
Spd
km/h
Gust
km/h
Spd
kts
Gust
kts
06/01:30pm 32.1 37.1 27.1 75 3.6 WSW 15 26 8 14 1006.3 1006.3 0.0
06/01:00pm 31.7 35.8 26.3 73 3.9 W 17 24 9 13 1006.7 1006.7 0.0
06/12:30pm 32.0 37.9 26.8 74 3.8 WSW 9 19 5 10 1007.0 1007.0 0.0
06/12:00pm 31.8 37.7 26.8 75 3.6 WSW 9 22 5 12 1007.4 1007.4 0.0
06/11:30am 31.3 36.6 25.9 73 3.9 WSW 9 20 5 11 1007.7 1007.7 0.0
06/11:00am 31.6 37.5 26.2 73 3.9 WSW 7 15 4 8 1007.7 1007.7 0.0
06/10:30am 31.5 37.5 26.3 74 3.7 SW 7 15 4 8 1007.9 1007.9 0.0
06/10:00am 31.1 36.8 26.4 76 3.4 WSW 9 15 5 8 1007.9 1007.9 0.0
06/09:30am 31.1 37.3 26.4 76 3.4 SW 6 15 3 8 1007.6 1007.6 0.0
06/09:00am 30.4 36.3 25.9 77 3.2 SW 6 11 3 6 1007.7 1007.7 0.2
06/08:30am 29.8 35.6 26.0 80 2.7 SW 7 13 4 7 1007.2 1007.2 0.2
06/08:00am 29.6 35.2 25.8 80 2.7 WSW 7 17 4 9 1006.9 1006.9 0.2
06/07:30am 29.4 34.1 25.6 80 2.7 W 11 19 6 10 1006.8 1006.8 0.2
06/07:00am 28.9 34.5 25.7 83 2.3 WNW 7 11 4 6 1006.8 1006.8 0.2
06/06:30am 29.0 34.5 25.6 82 2.4 W 7 15 4 8 1006.5 1006.5 0.2
06/06:00am 29.1 34.3 25.7 82 2.4 W 9 15 5 8 1006.1 1006.1 0.2
06/05:30am 29.0 34.5 25.6 82 2.4 W 7 17 4 9 1006.2 1006.2 0.2
06/05:00am 29.1 34.2 25.5 81 2.5 W 9 20 5 11 1006.3 1006.3 0.2
06/04:30am 29.2 34.3 25.6 81 2.5 W 9 17 5 9 1006.1 1006.1 0.2
06/04:00am 29.2 34.6 26.0 83 2.3 W 9 15 5 8 1006.3 1006.3 0.2
06/03:30am 29.2 34.8 25.8 82 2.4 WNW 7 15 4 8 1006.6 1006.6 0.2
06/03:00am 29.1 34.7 25.7 82 2.4 WNW 7 11 4 6 1007.0 1007.0 0.2
06/02:30am 29.2 34.8 25.8 82 2.4 WNW 7 15 4 8 1006.9 1006.9 0.2
06/02:00am 29.1 34.8 25.9 83 2.3 WNW 7 15 4 8 1007.2 1007.2 0.2
06/01:30am 29.1 35.0 25.9 83 2.3 WNW 6 11 3 6 1007.7 1007.7 0.2
06/01:00am 29.2 34.6 26.0 83 2.3 W 9 13 5 7 1008.0 1008.0 0.2
06/12:30am 29.4 34.9 25.6 80 2.7 W 7 13 4 7 1008.3 1008.3 0.2
06/12:00am 29.4 35.2 26.0 82 2.4 W 7 13 4 7 1008.2 1008.2 0.2
 
Date/Time
CST
Temp
°C
App
Temp
°C
Dew
Point
Rel
Hum
%
Delta-T
°C
Wind Press
QNH
hPa
Press
MSL
hPa
Rain
since 9 am
mm
Dir
 
Spd
km/h
Gust
km/h
Spd
kts
Gust
kts
05/11:30pm 29.6 35.6 26.0 81 2.6 W 6 11 3 6 1008.1 1008.1 0.2
05/11:00pm 29.6 34.3 25.6 79 2.8 W 11 20 6 11 1008.4 1008.4 0.2
05/10:30pm 29.4 35.3 26.2 83 2.3 W 7 13 4 7 1008.3 1008.3 0.2
05/10:00pm 29.5 35.6 26.5 84 2.1 W 7 15 4 8 1008.2 1008.2 0.2
05/09:30pm 29.5 35.3 26.1 82 2.4 W 7 11 4 6 1008.0 1008.0 0.2
05/09:00pm 29.5 35.3 26.1 82 2.4 W 7 11 4 6 1007.7 1007.7 0.2
05/08:30pm 29.4 35.0 25.4 79 2.8 W 6 11 3 6 1007.4 1007.4 0.2
05/08:00pm 29.6 35.5 25.4 78 3.0 WSW 4 9 2 5 1007.0 1007.0 0.2
05/07:30pm 29.7 34.8 25.0 76 3.3 SW 7 13 4 7 1006.8 1006.8 0.2
05/07:00pm 30.2 35.3 25.0 73 3.7 WSW 7 17 4 9 1006.4 1006.4 0.2
05/06:30pm 30.6 34.8 25.4 74 3.7 W 13 19 7 10 1006.2 1006.2 0.2
05/06:00pm 31.2 36.3 25.5 71 4.0 W 9 19 5 10 1005.4 1005.4 0.2
05/05:30pm 31.4 36.5 25.5 71 4.2 WNW 9 19 5 10 1005.3 1005.3 0.2
05/05:00pm 31.7 37.1 26.0 72 4.1 WNW 9 17 5 9 1005.4 1005.4 0.2
05/04:30pm 31.4 36.4 26.0 73 3.9 WNW 11 19 6 10 1005.5 1005.5 0.2
05/04:00pm 30.6 36.3 25.9 76 3.3 WNW 7 15 4 8 1005.4 1005.4 0.2
05/03:30pm 32.0 37.5 26.1 71 4.2 W 9 15 5 8 1005.5 1005.5 0.2
05/03:00pm 31.8 36.8 25.4 69 4.5 W 9 13 5 7 1005.6 1005.6 0.2
05/02:30pm 31.8 37.5 25.9 71 4.2 W 7 13 4 7 1006.1 1006.1 0.2
05/02:00pm 31.3 36.3 25.4 71 4.2 W 9 17 5 9 1006.6 1006.6 0.2
05/01:30pm 31.2 36.6 26.0 74 3.7 WSW 9 17 5 9 1006.9 1006.9 0.2
05/01:00pm 31.1 36.9 26.1 75 3.6 WSW 7 13 4 7 1007.3 1007.3 0.2
05/12:30pm 31.1 36.3 25.7 73 3.8 WSW 9 15 5 8 1007.9 1007.9 0.2
05/12:00pm 30.8 36.1 25.8 74 3.6 WSW 9 13 5 7 1008.0 1008.0 0.2
05/11:30am 30.7 36.3 25.8 75 3.5 WSW 7 11 4 6 1008.1 1008.1 0.2
05/11:00am 30.3 35.4 24.9 73 3.8 WSW 7 11 4 6 1008.6 1008.6 0.2
05/10:30am 30.3 36.0 25.6 76 3.3 WSW 6 11 3 6 1008.8 1008.8 0.2
05/10:00am 29.9 35.5 24.8 74 3.6 WSW 4 7 2 4 1009.1 1009.1 0.2
05/09:30am 29.8 35.8 25.5 78 3.0 WSW 4 6 2 3 1009.1 1009.1 0.2
05/09:00am 29.3 35.6 25.3 79 2.8 SSE 2 6 1 3 1009.2 1009.2 3.6
05/08:30am 28.6 35.2 25.8 85 2.0 ESE 2 4 1 2 1008.8 1008.8 3.6
05/08:00am 27.4 33.6 25.8 91 1.1 ESE 4 6 2 3 1008.4 1008.4 3.6
05/07:30am 26.6 33.5 26.3 98 0.2 ESE 2 6 1 3 1008.2 1008.2 3.6
05/07:00am 26.2 32.9 25.9 98 0.2 SE 2 4 1 2 1008.0 1008.0 3.6
05/06:30am 26.3 33.0 26.0 98 0.2 ESE 2 4 1 2 1007.7 1007.7 3.6
05/06:00am 26.5 33.0 26.2 98 0.2 SSE 4 6 2 3 1007.9 1007.9 3.6
05/05:30am 26.7 33.3 26.4 98 0.2 SSE 4 6 2 3 1007.9 1007.9 3.6
05/05:00am 26.6 33.5 26.3 98 0.2 ESE 2 2 1 1 1007.6 1007.6 3.6
05/04:30am 26.9 33.3 26.7 99 0.1 ESE 6 7 3 4 1007.6 1007.6 3.6
05/04:00am 26.9 34.4 26.6 98 0.2 CALM 0 0 0 0 1007.3 1007.3 3.6
05/03:30am 26.9 34.4 26.6 98 0.2 CALM 0 0 0 0 1007.3 1007.3 3.6
05/03:00am 26.8 34.0 26.1 96 0.5 CALM 0 0 0 0 1007.3 1007.3 3.6
05/02:30am 26.9 34.0 26.0 95 0.6 CALM 0 0 0 0 1007.3 1007.3 3.6
05/02:00am 27.4 34.5 26.0 92 1.0 CALM 0 4 0 2 1007.4 1007.4 3.6
05/01:30am 27.5 34.3 26.1 92 1.0 WSW 2 6 1 3 1008.0 1008.0 3.6
05/01:00am 27.5 34.8 26.3 93 0.9 CALM 0 2 0 1 1008.6 1008.6 3.6
05/12:30am 27.4 33.2 25.8 91 1.1 W 6 9 3 5 1008.5 1008.5 3.6
05/12:00am 26.7 32.6 26.2 97 0.4 WNW 7 9 4 5 1008.5 1008.5 3.6
 
Date/Time
CST
Temp
°C
App
Temp
°C
Dew
Point
Rel
Hum
%
Delta-T
°C
Wind Press
QNH
hPa
Press
MSL
hPa
Rain
since 9 am
mm
Dir
 
Spd
km/h
Gust
km/h
Spd
kts
Gust
kts
04/11:30pm 26.4 33.6 26.1 98 0.2 CALM 0 0 0 0 1009.0 1009.0 3.6
04/11:00pm 26.0 32.4 25.5 97 0.4 NNW 2 6 1 3 1008.9 1008.9 3.6
04/10:30pm 26.2 33.0 25.5 96 0.5 CALM 0 0 0 0 1008.9 1008.9 3.6
04/10:00pm 26.3 33.1 25.6 96 0.5 CALM 0 0 0 0 1008.7 1008.7 3.6
04/09:30pm 26.1 31.7 25.4 96 0.5 NNE 6 7 3 4 1008.6 1008.6 3.6
04/09:00pm 25.9 32.0 25.0 95 0.6 NNE 2 4 1 2 1008.2 1008.2 3.6
04/08:30pm 25.4 30.1 24.0 92 1.0 NE 6 11 3 6 1008.3 1008.3 3.6
04/08:00pm 24.8 28.9 23.2 91 1.1 SE 7 17 4 9 1008.3 1008.3 3.6
04/07:30pm 28.0 32.1 23.2 75 3.3 S 7 19 4 10 1008.2 1008.2 0.2
04/07:00pm 29.7 35.1 25.2 77 3.2 W 6 9 3 5 1007.2 1007.2 0.2
04/06:30pm 29.9 35.0 25.0 75 3.4 WNW 7 15 4 8 1006.5 1006.5 0.2
04/06:00pm 30.7 36.3 25.8 75 3.5 WNW 7 13 4 7 1005.9 1005.9 0.2
04/05:30pm 30.5 35.8 25.8 76 3.3 WNW 9 15 5 8 1006.2 1006.2 0.2
04/05:00pm 31.0 36.3 25.8 74 3.7 WNW 9 13 5 7 1005.9 1005.9 0.2
04/04:30pm 31.0 36.3 25.8 74 3.7 WNW 9 19 5 10 1005.8 1005.8 0.2
04/04:00pm 31.4 36.3 25.3 70 4.3 NW 9 15 5 8 1005.8 1005.8 0.2
04/03:30pm 31.5 36.8 25.8 72 4.1 WNW 9 13 5 7 1005.6 1005.6 0.2
04/03:00pm 31.4 36.8 26.0 73 3.9 WNW 9 15 5 8 1005.7 1005.7 0.2
04/02:30pm 31.2 36.6 26.0 74 3.7 NW 9 17 5 9 1006.2 1006.2 0.2
04/02:00pm 31.2 35.8 24.8 69 4.5 NW 9 17 5 9 1006.6 1006.6 0.2
04/01:30pm 31.3 36.6 25.9 73 3.9 NNW 9 17 5 9 1007.2 1007.2 0.2
04/01:00pm 31.7 37.1 26.0 72 4.1 NNW 9 15 5 8 1007.4 1007.4 0.2
04/12:30pm 31.1 35.7 24.7 68 4.5 N 9 17 5 9 1007.8 1007.8 0.2
04/12:00pm 30.8 35.4 24.7 70 4.3 NNW 9 15 5 8 1008.1 1008.1 0.2
04/11:30am 30.9 35.5 25.3 72 4.0 N 11 17 6 9 1008.1 1008.1 0.2
04/11:00am 30.8 35.8 25.4 73 3.8 N 9 17 5 9 1008.4 1008.4 0.2
04/10:30am 30.1 34.2 24.5 72 3.9 N 11 19 6 10 1008.5 1008.5 0.2
04/10:00am 30.1 35.0 25.8 78 3.1 NNE 11 15 6 8 1008.3 1008.3 0.2
04/09:30am 29.5 34.6 25.0 77 3.2 N 7 13 4 7 1008.1 1008.1 0.0
04/09:00am 28.9 33.8 24.7 78 2.9 NNE 7 13 4 7 1007.9 1007.9 1.2
04/08:30am 29.1 34.2 24.9 78 2.9 NNE 7 13 4 7 1007.6 1007.6 1.2
04/08:00am 28.6 34.1 25.6 84 2.1 NNE 7 11 4 6 1007.4 1007.4 1.2
04/07:30am 27.8 33.5 25.6 88 1.6 NNE 6 11 3 6 1007.1 1007.1 1.2
04/07:00am 26.9 33.0 25.1 90 1.3 NE 2 4 1 2 1006.9 1006.9 1.2
04/06:30am 27.1 32.7 24.9 88 1.5 NNE 4 6 2 3 1006.4 1006.4 1.2
04/06:00am 27.6 32.9 25.0 86 1.8 NNE 6 11 3 6 1006.0 1006.0 1.2
04/05:30am 27.7 32.9 25.1 86 1.8 NNE 7 13 4 7 1005.7 1005.7 1.2
04/05:00am 27.6 32.9 25.2 87 1.7 NNE 7 13 4 7 1005.4 1005.4 1.2
04/04:30am 27.6 32.9 25.2 87 1.7 NNE 7 15 4 8 1005.2 1005.2 1.2
04/04:00am 27.6 32.3 25.0 86 1.8 N 9 15 5 8 1005.0 1005.0 1.2
04/03:30am 27.6 32.5 25.2 87 1.7 NNE 9 19 5 10 1005.3 1005.3 1.2
04/03:00am 27.6 32.3 25.0 86 1.8 N 9 15 5 8 1005.6 1005.6 1.2
04/02:30am 27.5 32.3 25.1 87 1.7 N 9 17 5 9 1005.8 1005.8 1.2
04/02:00am 26.9 32.5 25.5 92 1.0 NE 6 7 3 4 1006.2 1006.2 1.2
04/01:30am 26.6 32.3 25.6 94 0.7 NE 6 9 3 5 1006.3 1006.3 1.2
04/01:00am 26.7 32.5 25.8 95 0.6 ENE 6 9 3 5 1006.2 1006.2 1.2
04/12:30am 26.4 32.0 25.5 95 0.6 ENE 6 7 3 4 1006.4 1006.4 1.2
04/12:00am 26.4 32.4 25.5 95 0.6 E 4 7 2 4 1006.6 1006.6 1.2
 
Date/Time
CST
Temp
°C
App
Temp
°C
Dew
Point
Rel
Hum
%
Delta-T
°C
Wind Press
QNH
hPa
Press
MSL
hPa
Rain
since 9 am
mm
Dir
 
Spd
km/h
Gust
km/h
Spd
kts
Gust
kts
03/11:30pm 26.5 32.5 25.5 94 0.7 NE 4 6 2 3 1006.5 1006.5 1.2
03/11:00pm 26.8 32.2 25.4 92 1.0 NE 7 15 4 8 1006.6 1006.6 1.0
03/10:30pm 27.0 31.0 25.0 89 1.4 NNE 13 22 7 12 1006.6 1006.6 1.0
03/10:00pm 27.2 31.4 24.8 87 1.7 NNE 11 17 6 9 1006.5 1006.5 1.0
03/09:30pm 27.4 32.3 25.2 88 1.5 NE 9 17 5 9 1006.3 1006.3 1.0
03/09:00pm 27.7 32.5 25.1 86 1.8 NE 9 15 5 8 1005.8 1005.8 1.0
03/08:30pm 27.7 32.6 25.3 87 1.7 ENE 9 15 5 8 1005.5 1005.5 1.0
03/08:00pm 27.8 32.8 25.4 87 1.7 E 9 13 5 7 1005.1 1005.1 1.0
03/07:30pm 28.3 33.8 26.1 88 1.6 E 9 15 5 8 1004.9 1004.9 1.0
03/07:00pm 28.5 33.8 25.9 86 1.8 E 9 15 5 8 1004.1 1004.1 1.0
03/06:30pm 28.9 33.2 24.9 79 2.8 ENE 11 22 6 12 1004.2 1004.2 1.0
03/06:00pm 29.5 33.2 25.7 80 2.7 ENE 17 26 9 14 1003.0 1003.0 1.0
03/05:30pm 30.5 34.9 25.1 73 3.8 NE 11 19 6 10 1003.2 1003.2 1.0
03/05:00pm 30.8 35.1 24.9 71 4.1 ENE 11 19 6 10 1003.4 1003.4 1.0
03/04:30pm 30.8 35.1 24.9 71 4.2 ENE 11 20 6 11 1003.5 1003.5 1.0
03/04:00pm 30.5 34.4 24.9 72 3.9 ENE 13 24 7 13 1003.5 1003.5 1.0
03/03:30pm 30.7 33.6 24.4 69 4.4 ENE 17 24 9 13 1003.3 1003.3 1.0
03/03:00pm 30.9 34.4 24.8 70 4.3 E 15 24 8 13 1003.7 1003.7 1.0
03/02:30pm 30.7 34.2 24.8 71 4.2 E 15 24 8 13 1004.0 1004.0 1.0
03/02:00pm 30.0 34.0 24.4 72 3.9 ENE 11 17 6 9 1004.5 1004.5 1.0

Other Formats:

Comma delimited format used in spreadsheet applications
http://www.bom.gov.au/fwo/IDD60801/IDD60801.94116.axf

JavaScript Object Notation format (JSON) in row-major order
http://www.bom.gov.au/fwo/IDD60801/IDD60801.94116.json